Time;durP1;ratioP1;P1;durP2;ratioP2;P2;SDS_P1;SDS_P2;PMS_P1;PMS_P2;Temp;Humidity;BMP_temperature;BMP_pressure;BME280_temperature;BME280_humidity;BME280_pressure;Samples;Min_cycle;Max_cycle;Signal;HPM_P1;HPM_P2
2022/06/16 00:01:01;;;;;;;5.50;4.78;;;22.60;58.50;;;;;;5069614;28;20145;-79
2022/06/16 00:03:27;;;;;;;5.82;4.68;;;22.70;58.10;;;;;;5072485;28;20024;-79
2022/06/16 00:05:53;;;;;;;6.32;4.65;;;22.80;58.10;;;;;;5056275;28;20039;-78
2022/06/16 00:08:19;;;;;;;5.97;4.38;;;22.90;57.70;;;;;;5067165;28;20039;-78
2022/06/16 00:13:39;;;;;;;5.63;4.68;;;23.00;57.60;;;;;;5070452;28;20402;-78
2022/06/16 00:16:06;;;;;;;5.70;4.75;;;22.80;57.80;;;;;;5081413;28;20486;-78
2022/06/16 00:18:32;;;;;;;5.13;4.50;;;22.80;57.90;;;;;;5051055;28;20123;-77
2022/06/16 00:20:58;;;;;;;6.93;5.07;;;22.60;58.30;;;;;;5068954;28;20482;-78
2022/06/16 00:23:24;;;;;;;7.60;4.90;;;22.60;58.10;;;;;;5071245;28;20035;-79
2022/06/16 00:25:50;;;;;;;6.63;4.53;;;22.50;58.10;;;;;;5067479;28;20039;-78
2022/06/16 00:28:16;;;;;;;7.00;4.43;;;22.30;58.80;;;;;;5052527;28;20021;-79
2022/06/16 00:30:42;;;;;;;7.47;5.07;;;22.10;59.10;;;;;;5054470;28;20060;-79
2022/06/16 00:33:09;;;;;;;6.13;4.60;;;22.20;59.10;;;;;;5048390;28;20285;-78
2022/06/16 00:35:34;;;;;;;6.90;5.07;;;22.40;58.70;;;;;;5053486;28;20059;-79
2022/06/16 00:38:01;;;;;;;6.45;4.80;;;22.50;58.40;;;;;;5050651;28;20076;-78
2022/06/16 00:40:27;;;;;;;5.68;4.75;;;22.50;58.40;;;;;;5067123;28;21434;-77
2022/06/16 00:42:53;;;;;;;9.27;8.48;;;22.40;58.00;;;;;;5067399;28;20047;-79
2022/06/16 00:45:44;;;;;;;5.95;5.00;;;22.30;58.60;;;;;;5061888;28;20026;-79
2022/06/16 00:48:12;;;;;;;;;;;22.10;58.80;;;;;;5075399;28;21798;-77
2022/06/16 00:50:40;;;;;;;5.97;4.53;;;22.00;58.90;;;;;;5068921;28;19908;-77
2022/06/16 00:53:06;;;;;;;5.13;4.47;;;22.00;58.80;;;;;;5067741;28;21756;-76
2022/06/16 00:55:32;;;;;;;6.35;5.47;;;22.00;58.90;;;;;;5080537;28;20028;-76
2022/06/16 00:57:58;;;;;;;6.32;4.78;;;21.90;59.00;;;;;;5052330;28;20024;-78
2022/06/16 01:02:53;;;;;;;7.25;5.60;;;21.80;59.30;;;;;;5071347;28;20055;-78
2022/06/16 01:05:19;;;;;;;6.93;4.35;;;21.80;59.00;;;;;;5054626;28;20118;-78
2022/06/16 01:07:47;;;;;;;6.55;4.53;;;21.80;59.00;;;;;;5054505;28;20612;-78
2022/06/16 01:10:15;;;;;;;6.32;4.60;;;22.00;58.70;;;;;;5046409;28;20028;-78
2022/06/16 01:15:45;;;;;;;5.93;4.57;;;22.40;57.60;;;;;;5074072;28;20094;-76
2022/06/16 01:18:40;;;;;;;4.97;4.25;;;22.30;57.80;;;;;;5055346;28;20039;-78
2022/06/16 01:21:10;;;;;;;5.25;4.20;;;22.40;57.60;;;;;;5054992;28;20040;-77
2022/06/16 01:23:48;;;;;;;5.70;3.80;;;22.50;57.20;;;;;;5067333;28;20033;-78
2022/06/16 01:26:26;;;;;;;5.32;3.90;;;22.40;57.10;;;;;;5048941;28;20025;-79
2022/06/16 01:29:10;;;;;;;5.47;3.80;;;22.10;58.00;;;;;;5074699;28;20028;-77
2022/06/16 01:31:54;;;;;;;5.75;4.07;;;22.30;57.70;;;;;;5068054;28;20539;-78
2022/06/16 01:34:26;;;;;;;5.00;4.10;;;22.50;57.10;;;;;;5045583;28;20086;-80
2022/06/16 01:37:14;;;;;;;5.63;4.30;;;22.40;57.20;;;;;;5067341;28;20573;-79
2022/06/16 01:39:44;;;;;;;5.40;3.95;;;22.40;57.40;;;;;;5073014;28;20047;-77
2022/06/16 01:42:40;;;;;;;5.03;4.22;;;22.40;57.10;;;;;;5053312;28;20035;-77
2022/06/16 01:45:08;;;;;;;6.05;4.28;;;22.30;57.70;;;;;;5066992;28;20093;-78
2022/06/16 01:47:38;;;;;;;5.45;3.90;;;22.10;58.20;;;;;;5058296;28;20039;-77
2022/06/16 01:50:18;;;;;;;5.20;4.22;;;22.00;58.50;;;;;;5064936;28;20024;-77
2022/06/16 01:53:16;;;;;;;5.53;4.70;;;22.00;58.30;;;;;;5064087;28;20119;-77
2022/06/16 01:55:50;;;;;;;6.45;4.20;;;22.00;58.50;;;;;;5052322;28;20548;-77
2022/06/16 01:58:24;;;;;;;5.10;4.05;;;22.10;58.60;;;;;;5068880;28;20565;-78
2022/06/16 02:00:54;;;;;;;6.05;4.15;;;22.20;58.40;;;;;;5051630;28;20071;-78
2022/06/16 02:03:35;;;;;;;4.78;4.20;;;22.40;58.10;;;;;;5069504;28;20028;-78
2022/06/16 02:06:16;;;;;;;7.18;4.22;;;22.40;57.80;;;;;;5070605;28;20201;-78
2022/06/16 02:08:47;;;;;;;4.57;3.80;;;22.50;58.00;;;;;;5072704;28;20028;-78
2022/06/16 02:11:22;;;;;;;6.45;4.50;;;22.60;58.00;;;;;;5050827;28;20028;-78
2022/06/16 02:13:56;;;;;;;5.32;4.22;;;22.50;57.60;;;;;;5069849;28;20020;-78
2022/06/16 02:16:27;;;;;;;7.60;4.90;;;22.50;58.00;;;;;;5074881;28;20035;-77
2022/06/16 02:18:54;;;;;;;;;;;22.50;58.10;;;;;;5070322;28;20585;-77
2022/06/16 02:21:46;;;;;;;6.53;4.38;;;22.50;57.80;;;;;;5056875;28;19912;-77
2022/06/16 02:24:15;;;;;;;4.80;4.10;;;22.40;57.60;;;;;;5065861;28;20029;-78
2022/06/16 02:26:43;;;;;;;5.60;4.32;;;22.40;57.50;;;;;;5083704;28;20482;-78
2022/06/16 02:29:33;;;;;;;6.18;4.38;;;22.40;57.90;;;;;;5070776;28;20043;-78
2022/06/16 02:32:29;;;;;;;6.40;4.28;;;22.40;57.70;;;;;;5051032;28;20043;-77
2022/06/16 02:35:03;;;;;;;5.53;4.40;;;22.30;57.70;;;;;;5069934;28;20539;-78
2022/06/16 02:37:59;;;;;;;5.38;4.30;;;22.20;58.20;;;;;;5072135;28;20108;-77
2022/06/16 02:41:09;;;;;;;5.45;4.47;;;22.00;58.50;;;;;;5087351;28;20031;-79
2022/06/16 02:43:47;;;;;;;5.88;5.28;;;22.00;58.40;;;;;;4981743;28;20587;-78
2022/06/16 02:46:38;;;;;;;7.18;4.53;;;22.20;58.40;;;;;;4979280;28;20030;-78
2022/06/16 02:49:26;;;;;;;5.40;4.70;;;22.20;57.90;;;;;;4977591;28;20640;-79
2022/06/16 02:52:02;;;;;;;6.38;4.60;;;22.10;58.10;;;;;;4981503;28;20148;-78
2022/06/16 02:54:38;;;;;;;6.15;4.40;;;21.90;58.70;;;;;;4983005;28;20429;-77
2022/06/16 02:57:29;;;;;;;5.00;4.50;;;22.00;58.70;;;;;;4978135;28;20042;-77
2022/06/16 02:59:59;;;;;;;4.80;4.00;;;22.10;58.10;;;;;;4982253;28;20060;-79
2022/06/16 03:02:26;;;;;;;6.50;4.70;;;22.10;57.80;;;;;;4985341;28;20509;-77
2022/06/16 03:04:56;;;;;;;8.73;4.90;;;22.10;58.00;;;;;;4977959;28;20114;-78
2022/06/16 03:07:23;;;;;;;6.17;5.40;;;21.90;58.40;;;;;;4977738;28;20558;-78
2022/06/16 03:09:49;;;;;;;6.35;4.40;;;21.70;58.30;;;;;;4976795;28;20045;-79
2022/06/16 03:12:15;;;;;;;6.63;4.47;;;21.70;58.90;;;;;;4980579;28;20763;-77
2022/06/16 03:14:42;;;;;;;5.75;4.65;;;21.70;58.80;;;;;;4977504;28;20077;-75
2022/06/16 03:17:10;;;;;;;4.93;4.32;;;21.60;59.30;;;;;;4983551;28;20042;-80
2022/06/16 03:19:36;;;;;;;5.97;4.45;;;21.70;59.00;;;;;;4994598;28;20124;-76
2022/06/16 03:22:03;;;;;;;5.22;4.25;;;21.70;58.50;;;;;;5070582;28;20039;-78
2022/06/16 03:24:29;;;;;;;5.05;4.15;;;21.80;58.90;;;;;;5053161;28;20056;-79
2022/06/16 03:26:55;;;;;;;5.75;4.40;;;21.80;58.90;;;;;;5051953;28;20069;-78
2022/06/16 03:29:20;;;;;;;6.32;4.60;;;21.90;59.00;;;;;;5054791;28;20032;-79
2022/06/16 03:31:46;;;;;;;5.43;3.97;;;22.00;59.10;;;;;;5070714;28;20161;-78
2022/06/16 03:34:12;;;;;;;5.72;4.28;;;21.90;59.50;;;;;;5067603;28;20032;-78
2022/06/16 03:36:38;;;;;;;6.40;4.57;;;22.00;58.90;;;;;;5051187;28;20506;-77
2022/06/16 03:39:05;;;;;;;5.63;4.20;;;22.00;59.20;;;;;;5072292;28;20101;-77
2022/06/16 03:41:32;;;;;;;4.60;4.10;;;22.10;58.90;;;;;;5050774;28;20028;-77
2022/06/16 03:43:58;;;;;;;5.13;4.50;;;22.20;58.70;;;;;;5062262;28;20077;-79
2022/06/16 03:46:24;;;;;;;5.65;4.47;;;22.40;58.60;;;;;;5056915;28;20237;-77
2022/06/16 03:48:49;;;;;;;8.80;4.30;;;22.60;58.40;;;;;;5066100;28;20016;-78
2022/06/16 03:51:15;;;;;;;5.63;4.20;;;22.70;58.20;;;;;;5075386;28;20028;-78
2022/06/16 03:53:42;;;;;;;8.50;4.55;;;22.70;58.60;;;;;;5076271;28;20433;-78
2022/06/16 03:56:08;;;;;;;6.75;4.70;;;22.80;58.20;;;;;;5072720;28;20036;-78
2022/06/16 03:58:34;;;;;;;5.85;4.13;;;23.00;58.00;;;;;;5072273;28;20024;-77
2022/06/16 04:01:00;;;;;;;35.80;33.40;;;23.10;57.90;;;;;;5072279;28;20082;-76
2022/06/16 04:06:14;;;;;;;6.68;4.22;;;23.10;58.00;;;;;;5067016;28;20058;-78
2022/06/16 04:08:41;;;;;;;5.45;4.18;;;23.10;57.90;;;;;;5047625;28;20032;-76
2022/06/16 04:13:52;;;;;;;5.68;4.00;;;23.20;57.80;;;;;;5068455;28;20043;-78
2022/06/16 04:16:19;;;;;;;6.45;4.20;;;23.40;57.70;;;;;;5085618;28;20036;-79
2022/06/16 04:18:44;;;;;;;4.90;3.55;;;23.50;56.60;;;;;;5079937;28;20032;-78
2022/06/16 04:21:11;;;;;;;5.85;3.63;;;23.70;56.50;;;;;;5068881;28;21482;-78
2022/06/16 04:23:38;;;;;;;4.80;3.95;;;23.70;56.20;;;;;;5067487;28;20028;-80
2022/06/16 04:26:04;;;;;;;6.18;3.72;;;23.80;56.90;;;;;;5057039;28;20032;-82
2022/06/16 04:28:30;;;;;;;4.82;3.35;;;23.90;56.20;;;;;;5056125;28;20028;-77
2022/06/16 04:30:56;;;;;;;5.70;3.33;;;23.90;55.80;;;;;;5067959;28;20032;-82
2022/06/16 04:33:22;;;;;;;7.70;3.80;;;24.00;55.50;;;;;;5052737;28;20151;-78
2022/06/16 04:35:48;;;;;;;5.13;3.35;;;23.40;57.40;;;;;;5069559;28;21434;-78
2022/06/16 04:38:14;;;;;;;3.92;2.95;;;23.40;57.00;;;;;;5051544;28;20142;-80
2022/06/16 04:40:40;;;;;;;4.70;3.10;;;23.60;56.40;;;;;;5053267;28;20032;-81
2022/06/16 04:43:06;;;;;;;4.65;3.38;;;23.80;55.60;;;;;;5053281;28;20390;-78
2022/06/16 04:45:32;;;;;;;4.90;3.00;;;24.00;56.30;;;;;;5056546;28;20024;-79
2022/06/16 04:47:58;;;;;;;4.68;3.25;;;24.20;55.40;;;;;;5065717;28;20119;-80
2022/06/16 04:50:24;;;;;;;4.65;3.20;;;24.10;55.20;;;;;;5066632;28;20016;-82
2022/06/16 04:52:50;;;;;;;4.60;3.03;;;24.10;55.60;;;;;;5055201;28;20028;-79
2022/06/16 04:55:17;;;;;;;6.03;3.20;;;24.10;55.50;;;;;;5055950;28;20066;-80
2022/06/16 04:58:00;;;;;;;7.38;3.00;;;24.50;55.30;;;;;;5092926;28;20044;-91
2022/06/16 05:00:25;;;;;;;7.95;3.17;;;24.40;53.90;;;;;;5058025;28;20059;-87
2022/06/16 05:02:51;;;;;;;4.85;3.22;;;23.80;55.20;;;;;;5074517;28;20070;-80
2022/06/16 05:05:17;;;;;;;4.28;2.85;;;23.50;56.20;;;;;;5074477;28;20021;-84
2022/06/16 05:07:43;;;;;;;6.88;3.20;;;23.80;56.40;;;;;;5060549;28;20056;-80
2022/06/16 05:10:09;;;;;;;6.05;3.15;;;23.80;56.20;;;;;;5090818;28;20139;-83
2022/06/16 05:12:35;;;;;;;5.28;3.30;;;24.40;55.40;;;;;;5083969;28;20048;-80
2022/06/16 05:15:01;;;;;;;4.97;3.13;;;25.10;55.20;;;;;;5054192;28;20167;-80
2022/06/16 05:17:27;;;;;;;4.82;3.05;;;25.30;54.20;;;;;;5086599;28;20063;-79
2022/06/16 05:19:52;;;;;;;6.65;2.88;;;25.50;54.60;;;;;;5059846;28;20043;-79
2022/06/16 05:22:19;;;;;;;5.35;3.00;;;25.40;53.70;;;;;;5062243;28;20029;-81
2022/06/16 05:24:56;;;;;;;5.38;3.13;;;25.20;53.70;;;;;;5073065;28;20521;-81
2022/06/16 05:27:22;;;;;;;4.20;3.05;;;24.30;55.00;;;;;;4375519;28;10000770;-82
2022/06/16 05:29:48;;;;;;;4.28;2.90;;;24.40;55.40;;;;;;5068561;28;20052;-81
2022/06/16 05:32:13;;;;;;;7.07;3.40;;;24.10;55.50;;;;;;5058604;28;20062;-78
2022/06/16 05:34:39;;;;;;;7.78;3.35;;;24.40;56.10;;;;;;5090766;28;20124;-76
2022/06/16 05:37:06;;;;;;;5.22;3.20;;;25.00;54.80;;;;;;5059318;28;20048;-79
2022/06/16 05:39:32;;;;;;;4.57;2.97;;;25.40;54.00;;;;;;5059758;28;20027;-77
2022/06/16 05:41:57;;;;;;;5.47;2.90;;;25.50;53.20;;;;;;5054536;28;20024;-80
2022/06/16 05:44:23;;;;;;;5.55;3.00;;;25.80;52.70;;;;;;5068668;28;20036;-82
2022/06/16 05:46:49;;;;;;;6.75;2.97;;;26.00;53.20;;;;;;5062867;28;20033;-83
2022/06/16 05:49:15;;;;;;;4.55;3.10;;;26.30;52.70;;;;;;5053404;28;20067;-79
2022/06/16 05:51:41;;;;;;;5.88;3.03;;;26.60;52.80;;;;;;5071781;28;20035;-81
2022/06/16 05:54:07;;;;;;;4.60;2.83;;;26.80;52.70;;;;;;5072569;28;20032;-80
2022/06/16 05:56:34;;;;;;;6.88;2.90;;;27.10;52.50;;;;;;5070057;28;20508;-80
2022/06/16 05:59:00;;;;;;;8.55;3.00;;;27.10;52.00;;;;;;5073121;28;20140;-83
2022/06/16 06:01:26;;;;;;;4.03;2.67;;;27.50;52.10;;;;;;5072855;28;20390;-84
2022/06/16 06:03:52;;;;;;;5.82;2.78;;;27.70;50.90;;;;;;5075607;28;20020;-91
2022/06/16 06:06:17;;;;;;;3.97;2.83;;;26.90;51.20;;;;;;5071279;28;20029;-85
2022/06/16 06:17:17;;;;;;;7.45;2.65;;;26.90;52.20;;;;;;5068758;28;20442;-84
2022/06/16 06:19:46;;;;;;;4.32;2.65;;;27.60;51.40;;;;;;5073240;28;20471;-86
2022/06/16 06:22:19;;;;;;;7.03;2.55;;;28.20;50.60;;;;;;5074003;28;20032;-82
2022/06/16 06:24:50;;;;;;;5.07;2.65;;;27.70;51.00;;;;;;5074271;28;20440;-83
2022/06/16 06:27:20;;;;;;;10.15;2.60;;;28.00;51.10;;;;;;5071103;28;20028;-81
2022/06/16 06:29:48;;;;;;;4.10;2.40;;;28.40;51.50;;;;;;5054190;28;20375;-83
2022/06/16 06:32:16;;;;;;;4.20;2.60;;;28.80;51.00;;;;;;5054952;28;20033;-84
2022/06/16 06:34:42;;;;;;;5.43;2.80;;;28.90;52.10;;;;;;5055305;28;20025;-84
2022/06/16 06:37:10;;;;;;;4.00;2.33;;;28.20;50.00;;;;;;5054082;28;20094;-88
2022/06/16 06:39:42;;;;;;;3.38;2.30;;;27.60;51.70;;;;;;5054682;28;20040;-85
2022/06/16 06:42:08;;;;;;;4.20;2.47;;;27.70;52.50;;;;;;5055505;28;20025;-84
2022/06/16 06:44:33;;;;;;;4.35;2.40;;;27.70;52.50;;;;;;5054824;28;20463;-91
2022/06/16 06:47:00;;;;;;;4.95;2.25;;;27.60;51.80;;;;;;5055670;28;20017;-85
2022/06/16 06:49:26;;;;;;;4.65;2.60;;;27.60;52.40;;;;;;5055617;28;20029;-85
2022/06/16 06:51:52;;;;;;;4.35;2.30;;;28.20;52.40;;;;;;5054539;28;20032;-84
2022/06/16 06:54:18;;;;;;;3.80;2.53;;;28.60;49.90;;;;;;5055675;28;20060;-81
2022/06/16 06:56:47;;;;;;;4.00;2.33;;;28.70;49.50;;;;;;5054307;28;20143;-84
2022/06/16 06:59:18;;;;;;;3.80;2.30;;;29.00;49.80;;;;;;5054923;28;20056;-85
2022/06/16 07:01:47;;;;;;;4.47;2.20;;;28.80;49.60;;;;;;5055605;28;20530;-90
2022/06/16 07:04:13;;;;;;;3.95;2.50;;;28.30;50.30;;;;;;5054420;28;20028;-83
2022/06/16 07:06:39;;;;;;;7.53;2.33;;;28.20;51.80;;;;;;5054380;28;20021;-90
2022/06/16 07:09:04;;;;;;;4.65;2.40;;;28.50;50.20;;;;;;5054397;28;20021;-88
2022/06/16 07:11:33;;;;;;;6.60;2.63;;;28.30;50.40;;;;;;5058746;28;20028;-85
2022/06/16 07:13:59;;;;;;;4.13;2.30;;;28.00;50.70;;;;;;5074549;28;20031;-91
2022/06/16 07:16:25;;;;;;;5.63;2.47;;;27.60;50.90;;;;;;5074148;28;20033;-82
2022/06/16 07:18:51;;;;;;;4.57;2.47;;;27.60;51.20;;;;;;5072341;28;20502;-82
2022/06/16 07:21:17;;;;;;;3.55;2.30;;;28.10;51.60;;;;;;5059130;28;20060;-86
2022/06/16 07:23:43;;;;;;;5.75;2.35;;;28.40;50.50;;;;;;5053199;28;20021;-80
2022/06/16 07:26:10;;;;;;;3.90;2.15;;;28.50;51.20;;;;;;5052806;28;20025;-81
2022/06/16 07:28:35;;;;;;;4.45;2.60;;;29.00;50.00;;;;;;5053999;28;20036;-83
2022/06/16 07:31:07;;;;;;;6.30;2.80;;;29.40;48.20;;;;;;5053750;28;20025;-90
2022/06/16 07:33:33;;;;;;;3.67;2.30;;;29.50;48.90;;;;;;5053443;28;20068;-84
2022/06/16 07:36:02;;;;;;;6.35;2.20;;;29.30;47.80;;;;;;5056352;28;20048;-87
2022/06/16 07:38:28;;;;;;;3.25;2.35;;;29.30;48.60;;;;;;5057669;28;20029;-85
2022/06/16 07:41:31;;;;;;;3.88;2.40;;;29.20;49.30;;;;;;5056767;28;20031;-83
2022/06/16 07:43:39;;;;;;;6.88;3.00;;;29.50;49.90;;;;;;5073095;28;20116;-81
2022/06/16 07:46:14;;;;;;;4.53;2.60;;;30.00;49.30;;;;;;5056385;28;20025;-82
2022/06/16 07:48:46;;;;;;;3.45;2.13;;;30.30;48.60;;;;;;5056869;28;20141;-89
2022/06/16 07:51:11;;;;;;;4.70;2.50;;;29.80;47.50;;;;;;5056749;28;20037;-83
2022/06/16 07:53:37;;;;;;;4.50;2.80;;;29.60;49.00;;;;;;5056567;28;20471;-79
2022/06/16 07:56:03;;;;;;;5.15;3.15;;;29.60;48.50;;;;;;5056017;28;20105;-80
2022/06/16 07:58:32;;;;;;;5.20;2.95;;;29.90;48.70;;;;;;5073423;28;20665;-79
2022/06/16 08:00:59;;;;;;;6.07;2.75;;;30.10;48.50;;;;;;5074159;28;20074;-87
2022/06/16 08:03:29;;;;;;;6.82;5.10;;;30.30;49.10;;;;;;5074121;28;20031;-81
2022/06/16 08:05:56;;;;;;;5.38;2.95;;;30.70;48.60;;;;;;5056438;28;20120;-81
2022/06/16 08:08:39;;;;;;;5.40;2.55;;;30.80;48.30;;;;;;5055901;28;20467;-89
2022/06/16 08:11:06;;;;;;;4.93;2.72;;;30.90;47.40;;;;;;5055656;28;20033;-79
2022/06/16 08:13:32;;;;;;;5.60;2.83;;;30.80;48.70;;;;;;5055631;28;20028;-80
2022/06/16 08:15:59;;;;;;;5.25;2.40;;;31.20;49.70;;;;;;5073967;28;20064;-94
2022/06/16 08:18:25;;;;;;;6.00;2.60;;;31.00;48.60;;;;;;5056045;28;20032;-82
2022/06/16 08:20:54;;;;;;;4.95;3.10;;;31.00;48.40;;;;;;5057445;28;20111;-95
2022/06/16 08:23:20;;;;;;;4.85;2.58;;;30.90;48.50;;;;;;5056569;28;20025;-85
2022/06/16 08:25:48;;;;;;;4.22;2.63;;;30.60;49.20;;;;;;5056336;28;20414;-87
2022/06/16 08:28:19;;;;;;;7.32;2.90;;;30.80;48.60;;;;;;5056063;28;20028;-85
2022/06/16 08:30:45;;;;;;;7.25;2.60;;;31.10;48.60;;;;;;5056325;28;20028;-84
2022/06/16 08:33:14;;;;;;;6.28;2.72;;;31.30;48.50;;;;;;5055817;28;20123;-79
2022/06/16 08:35:45;;;;;;;8.07;2.60;;;31.00;49.30;;;;;;4723597;28;10000539;-80
2022/06/16 08:38:12;;;;;;;5.40;2.67;;;31.40;49.30;;;;;;5073923;28;20474;-83
2022/06/16 08:40:43;;;;;;;5.50;2.50;;;31.80;48.40;;;;;;5075597;28;20028;-82
2022/06/16 08:43:27;;;;;;;5.00;2.65;;;32.00;47.70;;;;;;5070780;28;20028;-81
2022/06/16 08:46:00;;;;;;;9.13;3.88;;;32.40;47.90;;;;;;5093085;28;20032;-79
2022/06/16 08:48:45;;;;;;;5.00;2.80;;;32.60;48.20;;;;;;5087240;28;20061;-79
2022/06/16 08:51:26;;;;;;;6.05;3.05;;;32.50;48.70;;;;;;5074931;28;20107;-79
2022/06/16 08:54:08;;;;;;;4.47;2.83;;;32.40;47.40;;;;;;5075024;28;20059;-79
2022/06/16 08:56:53;;;;;;;4.53;2.88;;;32.20;47.10;;;;;;5074994;28;20065;-79
2022/06/16 08:59:41;;;;;;;4.18;2.70;;;32.30;47.90;;;;;;5075178;28;20051;-86
2022/06/16 09:02:13;;;;;;;4.68;2.83;;;32.20;46.80;;;;;;5075275;28;20409;-84
2022/06/16 09:04:42;;;;;;;5.18;2.92;;;32.30;46.30;;;;;;5075181;28;20048;-80
2022/06/16 09:07:29;;;;;;;8.18;3.10;;;32.30;47.10;;;;;;5074797;28;20020;-79
2022/06/16 09:10:16;;;;;;;8.20;2.95;;;32.20;46.50;;;;;;5097849;28;20036;-83
2022/06/16 09:13:09;;;;;;;3.70;2.80;;;31.90;47.00;;;;;;5078820;28;20515;-81
2022/06/16 09:15:41;;;;;;;5.70;3.00;;;32.00;48.50;;;;;;5097263;28;20036;-81
2022/06/16 09:18:34;;;;;;;4.88;2.90;;;31.90;46.60;;;;;;5079315;28;20089;-80
2022/06/16 09:21:24;;;;;;;4.00;2.50;;;32.10;46.70;;;;;;5097733;28;20055;-89
2022/06/16 09:24:17;;;;;;;7.47;3.00;;;32.10;47.40;;;;;;5097715;28;20497;-90
2022/06/16 09:26:56;;;;;;;4.72;2.45;;;32.10;46.40;;;;;;5079440;28;20031;-85
2022/06/16 09:29:42;;;;;;;5.25;2.78;;;32.40;45.50;;;;;;5096929;28;20073;-79
2022/06/16 09:32:26;;;;;;;6.30;2.80;;;32.60;46.60;;;;;;5078681;28;20036;-83
2022/06/16 09:34:58;;;;;;;7.32;2.92;;;33.10;46.00;;;;;;5080023;28;20024;-89
2022/06/16 09:37:55;;;;;;;4.28;2.47;;;32.80;46.20;;;;;;5096958;28;20116;-81
2022/06/16 09:40:33;;;;;;;3.95;2.72;;;33.00;46.50;;;;;;5079145;28;20021;-90
2022/06/16 09:43:23;;;;;;;5.13;2.70;;;33.40;46.40;;;;;;5097351;28;20019;-83
2022/06/16 09:46:14;;;;;;;6.70;2.75;;;33.50;46.10;;;;;;5078743;28;20024;-77
2022/06/16 09:48:47;;;;;;;4.60;2.70;;;33.70;46.80;;;;;;5078274;28;20057;-78
2022/06/16 09:51:35;;;;;;;6.25;3.80;;;33.70;48.80;;;;;;5096521;28;20107;-79
2022/06/16 09:54:14;;;;;;;4.30;2.80;;;33.30;46.30;;;;;;5096042;28;20024;-80
2022/06/16 09:56:48;;;;;;;5.40;2.80;;;33.00;47.80;;;;;;5077844;28;20085;-82
2022/06/16 09:59:27;;;;;;;6.93;5.13;;;33.20;46.40;;;;;;5095893;28;20020;-79
2022/06/16 10:02:01;;;;;;;5.75;2.97;;;33.30;46.10;;;;;;5077634;28;20387;-78
2022/06/16 10:04:27;;;;;;;6.63;2.72;;;33.50;46.30;;;;;;5095501;28;20074;-79
2022/06/16 10:07:14;;;;;;;5.50;2.60;;;33.80;45.70;;;;;;5077893;28;20449;-78
2022/06/16 10:10:02;;;;;;;7.32;3.20;;;33.90;46.50;;;;;;5095686;28;20023;-77
2022/06/16 10:12:44;;;;;;;4.72;2.70;;;33.90;45.80;;;;;;5095905;28;20104;-78
2022/06/16 10:15:22;;;;;;;4.32;2.67;;;33.30;46.60;;;;;;5077486;28;20447;-79
2022/06/16 10:17:51;;;;;;;6.05;2.80;;;33.30;45.80;;;;;;5095627;28;20068;-76
2022/06/16 10:20:19;;;;;;;8.07;2.63;;;33.50;45.40;;;;;;5076434;28;20020;-80
2022/06/16 10:23:12;;;;;;;4.15;2.60;;;33.40;45.10;;;;;;5095935;28;20419;-81
2022/06/16 10:25:45;;;;;;;4.40;2.75;;;33.20;44.70;;;;;;5095177;28;20012;-79
2022/06/16 10:28:42;;;;;;;6.03;2.83;;;33.10;44.80;;;;;;5075049;28;20344;-80
2022/06/16 10:31:09;;;;;;;5.85;2.78;;;33.30;44.80;;;;;;5057950;28;20028;-91
2022/06/16 10:33:39;;;;;;;4.30;2.80;;;33.70;45.60;;;;;;5075346;28;20032;-79
2022/06/16 10:36:14;;;;;;;4.65;2.88;;;33.90;46.30;;;;;;5075331;28;20525;-81
2022/06/16 10:38:44;;;;;;;6.07;3.00;;;34.00;45.80;;;;;;5074934;28;20063;-80
2022/06/16 10:41:31;;;;;;;5.30;2.88;;;33.70;45.60;;;;;;5057328;28;20029;-79
2022/06/16 10:44:03;;;;;;;4.82;2.70;;;33.80;45.20;;;;;;5056897;28;20029;-78
2022/06/16 10:46:31;;;;;;;6.43;2.85;;;33.80;45.00;;;;;;5075096;28;20035;-84
2022/06/16 10:49:01;;;;;;;6.72;2.83;;;33.60;45.70;;;;;;5074642;28;20053;-79
2022/06/16 10:51:29;;;;;;;4.35;2.88;;;33.70;47.60;;;;;;5074512;28;20039;-80
2022/06/16 10:54:10;;;;;;;3.58;2.50;;;34.20;46.70;;;;;;5057072;28;20387;-79
2022/06/16 10:56:36;;;;;;;7.15;2.83;;;34.40;45.10;;;;;;5056678;28;20040;-80
2022/06/16 10:59:03;;;;;;;4.40;2.90;;;34.40;45.00;;;;;;5074156;28;20021;-79
2022/06/16 11:01:46;;;;;;;4.20;2.97;;;34.30;44.80;;;;;;5056325;28;20071;-77
2022/06/16 11:04:20;;;;;;;6.93;2.92;;;34.20;45.30;;;;;;5055823;28;20024;-79
2022/06/16 11:06:51;;;;;;;4.20;2.90;;;33.90;45.10;;;;;;5072997;28;20593;-78
2022/06/16 11:09:19;;;;;;;4.55;2.78;;;33.80;45.90;;;;;;5073903;28;20024;-79
2022/06/16 11:11:54;;;;;;;4.90;2.90;;;33.90;44.90;;;;;;5056457;28;20035;-78
2022/06/16 11:14:39;;;;;;;6.45;2.70;;;33.90;44.30;;;;;;5056410;28;20020;-80
2022/06/16 11:17:15;;;;;;;3.65;2.58;;;33.90;44.30;;;;;;5056177;28;20040;-78
2022/06/16 11:19:53;;;;;;;6.53;2.65;;;34.20;45.30;;;;;;5074374;28;20052;-79
2022/06/16 11:22:27;;;;;;;4.50;2.40;;;34.20;44.50;;;;;;5074156;28;20032;-78
2022/06/16 11:25:02;;;;;;;4.00;2.90;;;34.20;44.50;;;;;;5056761;28;20020;-79
2022/06/16 11:27:36;;;;;;;6.45;3.10;;;34.10;44.10;;;;;;5073892;28;20374;-77
2022/06/16 11:30:03;;;;;;;4.97;2.65;;;34.20;43.60;;;;;;5073862;28;20559;-89
2022/06/16 11:32:35;;;;;;;5.72;2.60;;;34.50;43.70;;;;;;5056557;28;20032;-81
2022/06/16 11:35:01;;;;;;;5.05;2.60;;;34.20;45.50;;;;;;5055915;28;20032;-82
2022/06/16 11:37:57;;;;;;;4.20;2.70;;;34.00;45.20;;;;;;5055155;28;20117;-77
2022/06/16 11:40:26;;;;;;;3.80;2.50;;;34.20;45.30;;;;;;5073596;28;20103;-76
2022/06/16 11:43:16;;;;;;;4.13;2.70;;;34.50;43.40;;;;;;5073874;28;20513;-87
2022/06/16 11:46:10;;;;;;;4.65;2.80;;;34.70;43.50;;;;;;5074106;28;20086;-85
2022/06/16 11:48:54;;;;;;;4.63;3.00;;;34.30;45.00;;;;;;5056187;28;20063;-84
2022/06/16 11:51:48;;;;;;;4.13;2.80;;;34.20;45.20;;;;;;5056381;28;20078;-82
2022/06/16 11:54:35;;;;;;;5.10;2.80;;;33.90;43.80;;;;;;4956844;28;20237;-84
2022/06/16 11:57:13;;;;;;;3.97;2.88;;;33.90;44.70;;;;;;4973023;28;20035;-90
2022/06/16 11:59:50;;;;;;;5.10;3.53;;;33.70;44.10;;;;;;4973436;28;20027;-87
2022/06/16 12:02:37;;;;;;;5.40;3.25;;;33.50;44.60;;;;;;4972840;28;20097;-82
2022/06/16 12:05:33;;;;;;;4.07;2.63;;;33.60;44.00;;;;;;4973243;28;20038;-85
2022/06/16 12:08:25;;;;;;;4.18;2.67;;;33.90;44.10;;;;;;4972889;28;20027;-85
2022/06/16 12:11:09;;;;;;;5.50;3.15;;;34.00;46.30;;;;;;4972803;28;20470;-79
2022/06/16 12:14:00;;;;;;;4.65;2.90;;;34.00;45.50;;;;;;4956848;28;20026;-78
2022/06/16 12:16:51;;;;;;;4.55;2.85;;;34.20;44.00;;;;;;4972612;28;20030;-83
2022/06/16 12:19:40;;;;;;;6.72;3.00;;;34.30;44.20;;;;;;4972765;28;20043;-81
2022/06/16 12:22:22;;;;;;;5.45;2.83;;;34.10;44.50;;;;;;4972753;28;20031;-79
2022/06/16 12:24:59;;;;;;;5.95;3.50;;;34.20;45.40;;;;;;4956627;28;20102;-80
2022/06/16 12:28:03;;;;;;;4.18;2.60;;;34.40;45.80;;;;;;4972458;28;20497;-79
2022/06/16 12:30:43;;;;;;;6.82;6.22;;;34.60;43.60;;;;;;4989505;28;20116;-76
2022/06/16 12:33:38;;;;;;;5.10;4.50;;;34.60;44.10;;;;;;5055795;28;20040;-79
2022/06/16 12:36:13;;;;;;;4.07;2.67;;;34.60;44.70;;;;;;5057040;28;20048;-78
2022/06/16 12:38:49;;;;;;;4.72;3.63;;;34.80;43.90;;;;;;5055294;28;20078;-79
2022/06/16 12:41:26;;;;;;;6.15;3.00;;;34.90;43.50;;;;;;5073344;28;20108;-79
2022/06/16 12:44:14;;;;;;;5.15;2.65;;;34.60;43.80;;;;;;5072685;28;20024;-81
2022/06/16 12:46:42;;;;;;;4.32;2.83;;;34.30;44.00;;;;;;5055600;28;20025;-81
2022/06/16 12:49:36;;;;;;;4.93;2.90;;;34.10;44.50;;;;;;5055124;28;20094;-78
2022/06/16 12:52:24;;;;;;;5.25;2.90;;;34.30;44.50;;;;;;5045280;28;20032;-79
2022/06/16 12:55:00;;;;;;;5.93;2.88;;;34.50;43.50;;;;;;5072890;28;20034;-79
2022/06/16 12:57:32;;;;;;;4.35;3.00;;;34.60;44.40;;;;;;5072559;28;20055;-76
2022/06/16 13:00:02;;;;;;;4.78;3.10;;;34.70;44.20;;;;;;5073201;28;20016;-83
2022/06/16 13:02:34;;;;;;;;;;;34.60;44.10;;;;;;5073676;28;20025;-85
2022/06/16 13:05:08;;;;;;;5.45;2.88;;;33.20;43.50;;;;;;5055130;28;19904;-79
2022/06/16 13:07:35;;;;;;;6.70;3.17;;;31.40;44.40;;;;;;5055558;28;20062;-78
2022/06/16 13:10:04;;;;;;;4.57;2.70;;;31.30;46.10;;;;;;5072548;28;20036;-79
2022/06/16 13:12:33;;;;;;;4.65;2.80;;;32.30;44.90;;;;;;5072797;28;20043;-76
2022/06/16 13:15:01;;;;;;;4.10;2.90;;;33.30;43.60;;;;;;5072526;28;20024;-79
2022/06/16 13:17:36;;;;;;;4.88;2.80;;;33.70;44.00;;;;;;5072511;28;20090;-79
2022/06/16 13:20:12;;;;;;;3.83;2.67;;;34.20;43.10;;;;;;5072162;28;20524;-80
2022/06/16 13:22:38;;;;;;;4.97;2.60;;;34.60;43.50;;;;;;5072610;28;20048;-78
2022/06/16 13:25:08;;;;;;;5.15;2.70;;;34.60;42.40;;;;;;5072445;28;20115;-76
2022/06/16 13:27:37;;;;;;;4.38;2.67;;;34.80;42.90;;;;;;5072457;28;20028;-80
2022/06/16 13:30:05;;;;;;;6.70;3.13;;;34.90;42.40;;;;;;5072204;28;20025;-79
2022/06/16 13:32:39;;;;;;;6.97;2.53;;;35.10;43.30;;;;;;5054601;28;20060;-77
2022/06/16 13:35:14;;;;;;;4.03;2.88;;;35.30;43.10;;;;;;5072130;28;20431;-79
2022/06/16 13:37:49;;;;;;;6.43;2.80;;;35.30;43.10;;;;;;5072466;28;20052;-81
2022/06/16 13:40:22;;;;;;;5.15;3.13;;;35.00;42.60;;;;;;5053829;28;20023;-78